sensor_id;sensor_type;location;lat;lon;timestamp;pressure;altitude;pressure_sealevel;temperature;humidity
76766;BME280;65707;52.362;6.588;2023-09-12T00:02:01;101343.09;;;21.11;93.90
76766;BME280;65707;52.362;6.588;2023-09-12T00:04:28;101361.22;;;21.06;93.54
76766;BME280;65707;52.362;6.588;2023-09-12T00:06:54;101388.03;;;20.84;94.45
76766;BME280;65707;52.362;6.588;2023-09-12T00:09:21;101397.66;;;20.62;95.64
76766;BME280;65707;52.362;6.588;2023-09-12T00:11:47;101397.03;;;20.60;96.41
76766;BME280;65707;52.362;6.588;2023-09-12T00:14:16;101362.97;;;20.69;95.75
76766;BME280;65707;52.362;6.588;2023-09-12T00:16:43;101374.50;;;20.71;96.20
76766;BME280;65707;52.362;6.588;2023-09-12T00:19:10;101356.63;;;20.75;96.32
76766;BME280;65707;52.362;6.588;2023-09-12T00:21:36;101295.84;;;20.68;96.24
76766;BME280;65707;52.362;6.588;2023-09-12T00:24:03;101269.19;;;20.46;97.44
76766;BME280;65707;52.362;6.588;2023-09-12T00:26:30;101267.50;;;20.45;98.74
76766;BME280;65707;52.362;6.588;2023-09-12T00:28:58;101258.22;;;20.52;98.75
76766;BME280;65707;52.362;6.588;2023-09-12T00:31:26;101243.44;;;20.42;99.10
76766;BME280;65707;52.362;6.588;2023-09-12T00:33:53;101258.84;;;20.54;99.36
76766;BME280;65707;52.362;6.588;2023-09-12T00:36:19;101251.41;;;20.61;98.35
76766;BME280;65707;52.362;6.588;2023-09-12T00:38:46;101253.78;;;20.58;97.79
76766;BME280;65707;52.362;6.588;2023-09-12T00:41:12;101262.22;;;20.74;98.27
76766;BME280;65707;52.362;6.588;2023-09-12T00:43:39;101272.44;;;20.79;96.77
76766;BME280;65707;52.362;6.588;2023-09-12T00:46:06;101264.88;;;20.81;97.54
76766;BME280;65707;52.362;6.588;2023-09-12T00:48:34;101264.66;;;20.82;96.95
76766;BME280;65707;52.362;6.588;2023-09-12T00:51:02;101256.00;;;20.85;96.55
76766;BME280;65707;52.362;6.588;2023-09-12T00:53:29;101248.28;;;20.82;95.77
76766;BME280;65707;52.362;6.588;2023-09-12T00:55:57;101260.84;;;20.83;97.20
76766;BME280;65707;52.362;6.588;2023-09-12T00:58:26;101257.97;;;20.78;96.65
76766;BME280;65707;52.362;6.588;2023-09-12T01:00:53;101259.03;;;20.77;97.13
76766;BME280;65707;52.362;6.588;2023-09-12T01:03:20;101266.38;;;20.77;97.12
76766;BME280;65707;52.362;6.588;2023-09-12T01:05:48;101272.50;;;20.72;96.65
76766;BME280;65707;52.362;6.588;2023-09-12T01:08:15;101270.69;;;20.66;97.04
76766;BME280;65707;52.362;6.588;2023-09-12T01:10:42;101285.25;;;20.54;97.34
76766;BME280;65707;52.362;6.588;2023-09-12T01:13:11;101299.22;;;20.39;97.43
76766;BME280;65707;52.362;6.588;2023-09-12T01:15:38;101304.66;;;20.39;98.40
76766;BME280;65707;52.362;6.588;2023-09-12T01:18:04;101301.91;;;20.46;98.29
76766;BME280;65707;52.362;6.588;2023-09-12T01:20:32;101313.47;;;20.41;97.95
76766;BME280;65707;52.362;6.588;2023-09-12T01:23:21;101334.50;;;20.34;98.18
76766;BME280;65707;52.362;6.588;2023-09-12T01:26:14;101350.91;;;20.28;98.79
76766;BME280;65707;52.362;6.588;2023-09-12T01:28:45;101347.56;;;20.26;99.18
76766;BME280;65707;52.362;6.588;2023-09-12T01:31:12;101347.16;;;20.22;99.48
76766;BME280;65707;52.362;6.588;2023-09-12T01:33:39;101333.34;;;20.17;99.25
76766;BME280;65707;52.362;6.588;2023-09-12T01:36:08;101311.34;;;20.12;99.53
76766;BME280;65707;52.362;6.588;2023-09-12T01:38:35;101271.31;;;20.06;99.36
76766;BME280;65707;52.362;6.588;2023-09-12T01:41:02;101273.41;;;20.11;99.41
76766;BME280;65707;52.362;6.588;2023-09-12T01:43:29;101275.91;;;20.12;99.41
76766;BME280;65707;52.362;6.588;2023-09-12T01:46:00;101267.94;;;20.17;99.79
76766;BME280;65707;52.362;6.588;2023-09-12T01:48:34;101267.13;;;20.10;99.83
76766;BME280;65707;52.362;6.588;2023-09-12T01:51:02;101269.63;;;20.12;99.81
76766;BME280;65707;52.362;6.588;2023-09-12T01:53:30;101273.38;;;20.17;99.63
76766;BME280;65707;52.362;6.588;2023-09-12T01:55:58;101271.28;;;20.13;99.31
76766;BME280;65707;52.362;6.588;2023-09-12T01:58:26;101267.56;;;20.14;99.62
76766;BME280;65707;52.362;6.588;2023-09-12T02:00:52;101268.75;;;20.18;99.47
76766;BME280;65707;52.362;6.588;2023-09-12T02:03:20;101266.44;;;20.21;99.01
76766;BME280;65707;52.362;6.588;2023-09-12T02:05:47;101269.63;;;20.18;98.89
76766;BME280;65707;52.362;6.588;2023-09-12T02:08:14;101263.59;;;20.03;98.60
76766;BME280;65707;52.362;6.588;2023-09-12T02:10:41;101269.22;;;20.08;98.99
76766;BME280;65707;52.362;6.588;2023-09-12T02:13:07;101259.59;;;20.06;99.19
76766;BME280;65707;52.362;6.588;2023-09-12T02:15:34;101263.56;;;20.10;98.86
76766;BME280;65707;52.362;6.588;2023-09-12T02:18:01;101262.09;;;20.07;98.94
76766;BME280;65707;52.362;6.588;2023-09-12T02:20:31;101258.13;;;20.03;99.09
76766;BME280;65707;52.362;6.588;2023-09-12T02:22:57;101255.84;;;20.00;99.24
76766;BME280;65707;52.362;6.588;2023-09-12T02:25:24;101257.91;;;20.04;98.29
76766;BME280;65707;52.362;6.588;2023-09-12T02:27:51;101251.03;;;20.02;98.43
76766;BME280;65707;52.362;6.588;2023-09-12T02:30:17;101256.88;;;20.06;98.47
76766;BME280;65707;52.362;6.588;2023-09-12T02:32:44;101245.34;;;20.03;98.10
76766;BME280;65707;52.362;6.588;2023-09-12T02:35:10;101255.25;;;19.98;98.14
76766;BME280;65707;52.362;6.588;2023-09-12T02:37:39;101263.88;;;19.95;97.83
76766;BME280;65707;52.362;6.588;2023-09-12T02:40:06;101262.63;;;19.91;97.51
76766;BME280;65707;52.362;6.588;2023-09-12T02:42:36;101268.59;;;19.75;97.95
76766;BME280;65707;52.362;6.588;2023-09-12T02:45:03;101272.78;;;19.77;98.54
76766;BME280;65707;52.362;6.588;2023-09-12T02:47:30;101276.31;;;19.78;98.59
76766;BME280;65707;52.362;6.588;2023-09-12T02:49:57;101274.44;;;19.78;98.63
76766;BME280;65707;52.362;6.588;2023-09-12T02:52:23;101281.97;;;19.76;98.62
76766;BME280;65707;52.362;6.588;2023-09-12T02:54:51;101268.16;;;19.78;98.78
76766;BME280;65707;52.362;6.588;2023-09-12T02:57:18;101271.94;;;19.77;98.84
76766;BME280;65707;52.362;6.588;2023-09-12T02:59:44;101271.94;;;19.77;98.59
76766;BME280;65707;52.362;6.588;2023-09-12T03:02:11;101268.63;;;19.68;98.80
76766;BME280;65707;52.362;6.588;2023-09-12T03:04:37;101267.38;;;19.71;98.88
76766;BME280;65707;52.362;6.588;2023-09-12T03:07:04;101269.84;;;19.79;99.29
76766;BME280;65707;52.362;6.588;2023-09-12T03:09:31;101267.47;;;19.82;99.53
76766;BME280;65707;52.362;6.588;2023-09-12T03:12:00;101266.00;;;19.86;99.17
76766;BME280;65707;52.362;6.588;2023-09-12T03:14:27;101264.34;;;19.85;99.31
76766;BME280;65707;52.362;6.588;2023-09-12T03:16:54;101268.16;;;19.78;99.15
76766;BME280;65707;52.362;6.588;2023-09-12T03:19:21;101274.84;;;19.82;100.00
76766;BME280;65707;52.362;6.588;2023-09-12T03:21:47;101278.59;;;19.81;99.92
76766;BME280;65707;52.362;6.588;2023-09-12T03:24:14;101277.84;;;19.67;100.00
76766;BME280;65707;52.362;6.588;2023-09-12T03:26:43;101256.75;;;19.56;99.84
76766;BME280;65707;52.362;6.588;2023-09-12T03:29:11;101272.63;;;19.66;100.00
76766;BME280;65707;52.362;6.588;2023-09-12T03:31:38;101275.13;;;19.67;100.00
76766;BME280;65707;52.362;6.588;2023-09-12T03:34:05;101275.75;;;19.69;100.00
76766;BME280;65707;52.362;6.588;2023-09-12T03:36:31;101278.69;;;19.68;100.00
76766;BME280;65707;52.362;6.588;2023-09-12T03:38:58;101268.03;;;19.60;100.00
76766;BME280;65707;52.362;6.588;2023-09-12T03:41:24;101274.16;;;19.55;100.00
76766;BME280;65707;52.362;6.588;2023-09-12T03:43:52;101259.47;;;19.56;100.00
76766;BME280;65707;52.362;6.588;2023-09-12T03:46:21;101261.78;;;19.53;100.00
76766;BME280;65707;52.362;6.588;2023-09-12T03:48:47;101256.78;;;19.50;100.00
76766;BME280;65707;52.362;6.588;2023-09-12T03:51:14;101251.31;;;19.50;100.00
76766;BME280;65707;52.362;6.588;2023-09-12T03:53:41;101249.47;;;19.44;100.00
76766;BME280;65707;52.362;6.588;2023-09-12T03:56:07;101254.91;;;19.44;100.00
76766;BME280;65707;52.362;6.588;2023-09-12T03:58:37;101263.31;;;19.42;100.00
76766;BME280;65707;52.362;6.588;2023-09-12T04:01:04;101261.44;;;19.43;100.00
76766;BME280;65707;52.362;6.588;2023-09-12T04:03:32;101258.28;;;19.46;100.00
76766;BME280;65707;52.362;6.588;2023-09-12T04:05:58;101249.03;;;19.47;100.00
76766;BME280;65707;52.362;6.588;2023-09-12T04:08:25;101252.38;;;19.49;100.00
76766;BME280;65707;52.362;6.588;2023-09-12T04:10:51;101248.56;;;19.56;100.00
76766;BME280;65707;52.362;6.588;2023-09-12T04:13:18;101247.13;;;19.54;100.00
76766;BME280;65707;52.362;6.588;2023-09-12T04:15:45;101238.09;;;19.60;100.00
76766;BME280;65707;52.362;6.588;2023-09-12T04:18:11;101225.78;;;19.51;100.00
76766;BME280;65707;52.362;6.588;2023-09-12T04:20:39;101243.97;;;19.57;100.00
76766;BME280;65707;52.362;6.588;2023-09-12T04:23:06;101231.84;;;19.53;100.00
76766;BME280;65707;52.362;6.588;2023-09-12T04:25:33;101235.41;;;19.53;100.00
76766;BME280;65707;52.362;6.588;2023-09-12T04:27:59;101226.00;;;19.49;100.00
76766;BME280;65707;52.362;6.588;2023-09-12T04:30:26;101226.63;;;19.45;100.00
76766;BME280;65707;52.362;6.588;2023-09-12T04:32:53;101229.78;;;19.42;100.00
76766;BME280;65707;52.362;6.588;2023-09-12T04:35:19;101226.84;;;19.43;100.00
76766;BME280;65707;52.362;6.588;2023-09-12T04:37:47;101229.34;;;19.45;100.00
76766;BME280;65707;52.362;6.588;2023-09-12T04:40:14;101234.00;;;19.44;100.00
76766;BME280;65707;52.362;6.588;2023-09-12T04:42:41;101233.78;;;19.46;100.00
76766;BME280;65707;52.362;6.588;2023-09-12T04:45:08;101241.06;;;19.52;100.00
76766;BME280;65707;52.362;6.588;2023-09-12T04:47:35;101234.19;;;19.49;100.00
76766;BME280;65707;52.362;6.588;2023-09-12T04:50:02;101229.28;;;19.58;100.00
76766;BME280;65707;52.362;6.588;2023-09-12T04:52:29;101231.41;;;19.56;99.75
76766;BME280;65707;52.362;6.588;2023-09-12T04:54:57;101233.53;;;19.54;100.00
76766;BME280;65707;52.362;6.588;2023-09-12T04:57:23;101235.19;;;19.55;100.00
76766;BME280;65707;52.362;6.588;2023-09-12T04:59:51;101239.75;;;19.61;100.00
76766;BME280;65707;52.362;6.588;2023-09-12T05:02:17;101243.09;;;19.63;100.00
76766;BME280;65707;52.362;6.588;2023-09-12T05:04:44;101245.41;;;19.59;100.00
76766;BME280;65707;52.362;6.588;2023-09-12T05:07:10;101240.16;;;19.64;100.00
76766;BME280;65707;52.362;6.588;2023-09-12T05:09:37;101230.78;;;19.60;100.00
76766;BME280;65707;52.362;6.588;2023-09-12T05:12:05;101236.81;;;19.62;99.43
76766;BME280;65707;52.362;6.588;2023-09-12T05:14:32;101243.13;;;19.56;99.62
76766;BME280;65707;52.362;6.588;2023-09-12T05:16:59;101242.69;;;19.59;99.93
76766;BME280;65707;52.362;6.588;2023-09-12T05:19:27;101244.94;;;19.69;99.75
76766;BME280;65707;52.362;6.588;2023-09-12T05:21:54;101249.34;;;19.70;98.95
76766;BME280;65707;52.362;6.588;2023-09-12T05:24:20;101241.78;;;19.72;98.89
76766;BME280;65707;52.362;6.588;2023-09-12T05:26:47;101248.22;;;19.84;98.86
76766;BME280;65707;52.362;6.588;2023-09-12T05:29:16;101262.84;;;19.89;99.08
76766;BME280;65707;52.362;6.588;2023-09-12T05:31:42;101267.78;;;19.74;98.01
76766;BME280;65707;52.362;6.588;2023-09-12T05:34:09;101281.69;;;19.91;98.72
76766;BME280;65707;52.362;6.588;2023-09-12T05:36:36;101298.47;;;19.88;97.95
76766;BME280;65707;52.362;6.588;2023-09-12T05:39:02;101306.47;;;19.83;96.83
76766;BME280;65707;52.362;6.588;2023-09-12T05:41:30;101315.25;;;19.91;97.35
76766;BME280;65707;52.362;6.588;2023-09-12T05:43:57;101319.19;;;19.95;97.76
76766;BME280;65707;52.362;6.588;2023-09-12T05:46:25;101322.13;;;19.94;97.38
76766;BME280;65707;52.362;6.588;2023-09-12T05:48:51;101328.44;;;19.88;96.34
76766;BME280;65707;52.362;6.588;2023-09-12T05:51:18;101335.63;;;19.76;95.73
76766;BME280;65707;52.362;6.588;2023-09-12T05:53:44;101321.16;;;19.82;95.90
76766;BME280;65707;52.362;6.588;2023-09-12T05:56:11;101321.69;;;19.97;96.58
76766;BME280;65707;52.362;6.588;2023-09-12T05:58:37;101319.78;;;20.04;95.81
76766;BME280;65707;52.362;6.588;2023-09-12T06:01:07;101318.06;;;20.10;95.13
76766;BME280;65707;52.362;6.588;2023-09-12T06:03:35;101318.69;;;20.12;94.55
76766;BME280;65707;52.362;6.588;2023-09-12T06:06:02;101313.66;;;20.15;95.31
76766;BME280;65707;52.362;6.588;2023-09-12T06:08:28;101321.41;;;20.12;94.79
76766;BME280;65707;52.362;6.588;2023-09-12T06:10:55;101319.53;;;20.12;94.36
76766;BME280;65707;52.362;6.588;2023-09-12T06:13:22;101327.91;;;20.11;94.44
76766;BME280;65707;52.362;6.588;2023-09-12T06:15:50;101329.16;;;20.08;95.00
76766;BME280;65707;52.362;6.588;2023-09-12T06:18:16;101321.69;;;19.97;94.52
76766;BME280;65707;52.362;6.588;2023-09-12T06:20:45;101320.22;;;20.01;94.87
76766;BME280;65707;52.362;6.588;2023-09-12T06:23:11;101304.88;;;20.07;94.56
76766;BME280;65707;52.362;6.588;2023-09-12T06:25:38;101297.53;;;20.07;93.24
76766;BME280;65707;52.362;6.588;2023-09-12T06:28:08;101304.41;;;20.16;94.13
76766;BME280;65707;52.362;6.588;2023-09-12T06:30:35;101304.81;;;20.20;95.00
76766;BME280;65707;52.362;6.588;2023-09-12T06:33:01;101303.09;;;20.25;94.71
76766;BME280;65707;52.362;6.588;2023-09-12T06:35:28;101304.53;;;20.34;94.52
76766;BME280;65707;52.362;6.588;2023-09-12T06:37:56;101294.81;;;20.38;93.37
76766;BME280;65707;52.362;6.588;2023-09-12T06:40:22;101288.31;;;20.39;93.25
76766;BME280;65707;52.362;6.588;2023-09-12T06:42:49;101291.66;;;20.41;92.70
76766;BME280;65707;52.362;6.588;2023-09-12T06:45:16;101303.81;;;20.45;93.52
76766;BME280;65707;52.362;6.588;2023-09-12T06:47:42;101313.66;;;20.46;93.10
76766;BME280;65707;52.362;6.588;2023-09-12T06:50:09;101316.56;;;20.51;92.44
76766;BME280;65707;52.362;6.588;2023-09-12T06:52:36;101306.53;;;20.70;92.76
76766;BME280;65707;52.362;6.588;2023-09-12T06:55:05;101313.59;;;20.77;91.55
76766;BME280;65707;52.362;6.588;2023-09-12T06:57:32;101317.91;;;20.85;91.50
76766;BME280;65707;52.362;6.588;2023-09-12T06:59:59;101327.75;;;20.92;89.56
76766;BME280;65707;52.362;6.588;2023-09-12T07:02:26;101328.47;;;20.81;88.46
76766;BME280;65707;52.362;6.588;2023-09-12T07:04:54;101332.00;;;20.82;88.19
76766;BME280;65707;52.362;6.588;2023-09-12T07:07:21;101341.72;;;20.78;87.98
76766;BME280;65707;52.362;6.588;2023-09-12T07:09:48;101339.75;;;20.85;88.54
76766;BME280;65707;52.362;6.588;2023-09-12T07:12:16;101346.28;;;20.84;88.88
76766;BME280;65707;52.362;6.588;2023-09-12T07:14:43;101344.53;;;20.89;89.16
76766;BME280;65707;52.362;6.588;2023-09-12T07:17:09;101341.44;;;20.86;88.40
76766;BME280;65707;52.362;6.588;2023-09-12T07:19:36;101353.06;;;20.75;88.40
76766;BME280;65707;52.362;6.588;2023-09-12T07:22:03;101353.06;;;20.75;88.54
76766;BME280;65707;52.362;6.588;2023-09-12T07:24:31;101346.88;;;20.61;88.48
76766;BME280;65707;52.362;6.588;2023-09-12T07:26:57;101346.66;;;20.63;89.37
76766;BME280;65707;52.362;6.588;2023-09-12T07:29:25;101356.06;;;20.67;89.41
76766;BME280;65707;52.362;6.588;2023-09-12T07:31:52;101348.16;;;20.59;89.70
76766;BME280;65707;52.362;6.588;2023-09-12T07:34:20;101352.94;;;20.63;89.84
76766;BME280;65707;52.362;6.588;2023-09-12T07:36:46;101352.31;;;20.61;89.51
76766;BME280;65707;52.362;6.588;2023-09-12T07:39:13;101353.44;;;20.54;91.07
76766;BME280;65707;52.362;6.588;2023-09-12T07:41:40;101345.16;;;20.67;90.46
76766;BME280;65707;52.362;6.588;2023-09-12T07:44:06;101347.44;;;20.70;90.73
76766;BME280;65707;52.362;6.588;2023-09-12T07:46:37;101342.34;;;20.80;89.04
76766;BME280;65707;52.362;6.588;2023-09-12T07:49:04;101337.47;;;20.82;87.58
76766;BME280;65707;52.362;6.588;2023-09-12T07:51:31;101329.34;;;20.75;89.04
76766;BME280;65707;52.362;6.588;2023-09-12T07:53:57;101327.34;;;20.89;88.98
76766;BME280;65707;52.362;6.588;2023-09-12T07:56:24;101333.13;;;20.99;88.70
76766;BME280;65707;52.362;6.588;2023-09-12T07:58:50;101331.06;;;20.94;88.58
76766;BME280;65707;52.362;6.588;2023-09-12T08:01:17;101328.31;;;20.94;87.90
76766;BME280;65707;52.362;6.588;2023-09-12T08:03:45;101333.13;;;20.99;88.47
76766;BME280;65707;52.362;6.588;2023-09-12T08:06:12;101331.97;;;20.88;88.60
76766;BME280;65707;52.362;6.588;2023-09-12T08:08:39;101318.25;;;20.95;88.87
76766;BME280;65707;52.362;6.588;2023-09-12T08:11:05;101320.50;;;21.04;88.11
76766;BME280;65707;52.362;6.588;2023-09-12T08:13:32;101331.38;;;21.11;86.46
76766;BME280;65707;52.362;6.588;2023-09-12T08:15:58;101336.31;;;21.20;87.67
76766;BME280;65707;52.362;6.588;2023-09-12T08:18:27;101338.03;;;21.15;87.07
76766;BME280;65707;52.362;6.588;2023-09-12T08:20:55;101325.44;;;21.32;87.79
76766;BME280;65707;52.362;6.588;2023-09-12T08:23:22;101324.47;;;21.26;86.54
76766;BME280;65707;52.362;6.588;2023-09-12T08:25:49;101325.38;;;21.38;85.94
76766;BME280;65707;52.362;6.588;2023-09-12T08:28:16;101328.41;;;21.12;86.31
76766;BME280;65707;52.362;6.588;2023-09-12T08:30:43;101334.78;;;21.24;87.39
76766;BME280;65707;52.362;6.588;2023-09-12T08:33:10;101332.22;;;21.47;85.39
76766;BME280;65707;52.362;6.588;2023-09-12T08:35:36;101324.09;;;21.59;85.04
76766;BME280;65707;52.362;6.588;2023-09-12T08:38:05;101334.50;;;21.51;85.20
76766;BME280;65707;52.362;6.588;2023-09-12T08:40:33;101337.91;;;21.64;84.31
76766;BME280;65707;52.362;6.588;2023-09-12T08:43:01;101341.31;;;21.96;85.01
76766;BME280;65707;52.362;6.588;2023-09-12T08:45:28;101338.19;;;22.10;83.48
76766;BME280;65707;52.362;6.588;2023-09-12T08:47:58;101326.72;;;22.31;81.81
76766;BME280;65707;52.362;6.588;2023-09-12T08:50:25;101334.53;;;22.28;81.02
76766;BME280;65707;52.362;6.588;2023-09-12T08:52:56;101333.72;;;22.27;80.61
76766;BME280;65707;52.362;6.588;2023-09-12T08:55:24;101330.84;;;22.52;79.49
76766;BME280;65707;52.362;6.588;2023-09-12T08:57:51;101329.66;;;22.59;78.76
76766;BME280;65707;52.362;6.588;2023-09-12T09:00:19;101337.75;;;22.66;79.57
76766;BME280;65707;52.362;6.588;2023-09-12T09:02:48;101343.38;;;22.71;80.03
76766;BME280;65707;52.362;6.588;2023-09-12T09:05:16;101342.91;;;22.85;79.45
76766;BME280;65707;52.362;6.588;2023-09-12T09:07:44;101351.47;;;22.89;79.00
76766;BME280;65707;52.362;6.588;2023-09-12T09:10:14;101341.97;;;22.91;78.80
76766;BME280;65707;52.362;6.588;2023-09-12T09:12:43;101344.47;;;22.93;77.81
76766;BME280;65707;52.362;6.588;2023-09-12T09:15:27;101346.22;;;22.87;76.91
76766;BME280;65707;52.362;6.588;2023-09-12T09:17:55;101346.38;;;23.04;77.79
76766;BME280;65707;52.362;6.588;2023-09-12T09:20:26;101344.34;;;23.46;76.63
76766;BME280;65707;52.362;6.588;2023-09-12T09:23:02;101340.75;;;23.68;75.79
76766;BME280;65707;52.362;6.588;2023-09-12T09:25:31;101339.88;;;24.19;74.15
76766;BME280;65707;52.362;6.588;2023-09-12T09:28:02;101338.78;;;24.65;71.61
76766;BME280;65707;52.362;6.588;2023-09-12T09:30:40;101337.81;;;24.71;69.71
76766;BME280;65707;52.362;6.588;2023-09-12T09:33:07;101335.97;;;24.76;69.92
76766;BME280;65707;52.362;6.588;2023-09-12T09:35:34;101328.50;;;24.72;68.79
76766;BME280;65707;52.362;6.588;2023-09-12T09:38:02;101339.97;;;25.02;70.29
76766;BME280;65707;52.362;6.588;2023-09-12T09:40:29;101340.38;;;25.65;70.02
76766;BME280;65707;52.362;6.588;2023-09-12T09:43:00;101330.97;;;26.04;65.74
76766;BME280;65707;52.362;6.588;2023-09-12T09:45:27;101326.41;;;25.93;64.63
76766;BME280;65707;52.362;6.588;2023-09-12T09:47:57;101326.09;;;25.89;63.63
76766;BME280;65707;52.362;6.588;2023-09-12T09:50:23;101331.84;;;25.66;65.38
76766;BME280;65707;52.362;6.588;2023-09-12T09:52:53;101329.91;;;25.45;64.77
76766;BME280;65707;52.362;6.588;2023-09-12T09:55:20;101328.78;;;25.63;65.45
76766;BME280;65707;52.362;6.588;2023-09-12T09:57:47;101337.69;;;25.70;64.79
76766;BME280;65707;52.362;6.588;2023-09-12T10:00:15;101333.81;;;26.14;63.73
76766;BME280;65707;52.362;6.588;2023-09-12T10:02:43;101331.06;;;27.04;62.19
76766;BME280;65707;52.362;6.588;2023-09-12T10:05:13;101316.41;;;27.87;59.25
76766;BME280;65707;52.362;6.588;2023-09-12T10:07:42;101301.41;;;28.49;56.44
76766;BME280;65707;52.362;6.588;2023-09-12T10:10:12;101304.94;;;29.00;55.33
76766;BME280;65707;52.362;6.588;2023-09-12T10:12:43;101286.00;;;29.57;52.81
76766;BME280;65707;52.362;6.588;2023-09-12T10:15:11;101302.72;;;29.22;53.76
76766;BME280;65707;52.362;6.588;2023-09-12T10:17:42;101284.44;;;30.00;51.43
76766;BME280;65707;52.362;6.588;2023-09-12T10:20:16;101285.84;;;30.41;49.85
76766;BME280;65707;52.362;6.588;2023-09-12T10:22:51;101286.94;;;30.40;48.48
76766;BME280;65707;52.362;6.588;2023-09-12T10:25:18;101306.44;;;29.61;51.28
76766;BME280;65707;52.362;6.588;2023-09-12T10:27:46;101309.34;;;29.31;52.03
76766;BME280;65707;52.362;6.588;2023-09-12T10:30:13;101302.75;;;28.72;51.50
76766;BME280;65707;52.362;6.588;2023-09-12T10:32:41;101315.72;;;28.51;52.96
76766;BME280;65707;52.362;6.588;2023-09-12T10:35:11;101314.06;;;28.35;53.09
76766;BME280;65707;52.362;6.588;2023-09-12T10:37:41;101319.78;;;27.99;55.06
76766;BME280;65707;52.362;6.588;2023-09-12T10:40:11;101323.06;;;27.96;53.04
76766;BME280;65707;52.362;6.588;2023-09-12T10:42:40;101314.59;;;28.42;51.77
76766;BME280;65707;52.362;6.588;2023-09-12T10:45:09;101317.41;;;28.57;51.39
76766;BME280;65707;52.362;6.588;2023-09-12T10:47:37;101319.34;;;28.92;51.14
76766;BME280;65707;52.362;6.588;2023-09-12T10:50:06;101328.19;;;28.74;51.24
76766;BME280;65707;52.362;6.588;2023-09-12T10:52:33;101327.28;;;28.28;51.67
76766;BME280;65707;52.362;6.588;2023-09-12T10:55:04;101335.34;;;28.55;53.30
76766;BME280;65707;52.362;6.588;2023-09-12T10:57:32;101319.91;;;28.54;51.52
76766;BME280;65707;52.362;6.588;2023-09-12T11:00:12;101326.47;;;28.33;52.27
76766;BME280;65707;52.362;6.588;2023-09-12T11:02:40;101325.41;;;28.69;52.75
76766;BME280;65707;52.362;6.588;2023-09-12T11:05:35;101301.81;;;29.52;48.35
76766;BME280;65707;52.362;6.588;2023-09-12T11:08:02;101300.88;;;29.81;48.96
76766;BME280;65707;52.362;6.588;2023-09-12T11:10:29;101289.28;;;29.69;48.01
76766;BME280;65707;52.362;6.588;2023-09-12T11:12:57;101296.78;;;29.59;50.01
76766;BME280;65707;52.362;6.588;2023-09-12T11:15:26;101274.66;;;30.12;48.96
76766;BME280;65707;52.362;6.588;2023-09-12T11:18:00;101264.25;;;31.24;47.79
76766;BME280;65707;52.362;6.588;2023-09-12T11:20:49;101274.25;;;31.48;47.27
76766;BME280;65707;52.362;6.588;2023-09-12T11:23:16;101268.34;;;31.55;45.27
76766;BME280;65707;52.362;6.588;2023-09-12T11:25:43;101264.16;;;31.10;45.10
76766;BME280;65707;52.362;6.588;2023-09-12T11:28:10;101291.25;;;30.90;49.28
76766;BME280;65707;52.362;6.588;2023-09-12T11:30:36;101262.50;;;31.75;43.88
76766;BME280;65707;52.362;6.588;2023-09-12T11:33:04;101253.69;;;32.47;42.87
76766;BME280;65707;52.362;6.588;2023-09-12T11:35:38;101252.38;;;32.58;42.02
76766;BME280;65707;52.362;6.588;2023-09-12T11:38:09;101250.63;;;32.94;41.08
76766;BME280;65707;52.362;6.588;2023-09-12T11:40:43;101257.94;;;31.65;42.78
76766;BME280;65707;52.362;6.588;2023-09-12T11:43:20;101278.66;;;30.69;45.28
76766;BME280;65707;52.362;6.588;2023-09-12T11:45:47;101287.19;;;30.82;46.84
76766;BME280;65707;52.362;6.588;2023-09-12T11:48:13;101290.28;;;30.76;48.46
76766;BME280;65707;52.362;6.588;2023-09-12T11:50:41;101268.34;;;31.55;45.95
76766;BME280;65707;52.362;6.588;2023-09-12T11:53:09;101258.44;;;31.91;44.64
76766;BME280;65707;52.362;6.588;2023-09-12T11:55:41;101260.38;;;32.46;43.36
76766;BME280;65707;52.362;6.588;2023-09-12T11:58:10;101261.03;;;32.57;46.52
76766;BME280;65707;52.362;6.588;2023-09-12T12:00:37;101229.44;;;32.98;40.61
76766;BME280;65707;52.362;6.588;2023-09-12T12:03:04;101220.84;;;33.63;41.09
76766;BME280;65707;52.362;6.588;2023-09-12T12:05:32;101219.13;;;33.53;38.88
76766;BME280;65707;52.362;6.588;2023-09-12T12:08:00;101220.50;;;33.91;39.88
76766;BME280;65707;52.362;6.588;2023-09-12T12:10:28;101232.34;;;33.48;41.67
76766;BME280;65707;52.362;6.588;2023-09-12T12:12:55;101207.50;;;33.87;38.90
76766;BME280;65707;52.362;6.588;2023-09-12T12:15:22;101208.19;;;34.06;37.79
76766;BME280;65707;52.362;6.588;2023-09-12T12:17:49;101206.03;;;33.27;39.01
76766;BME280;65707;52.362;6.588;2023-09-12T12:20:20;101214.50;;;32.62;39.84
76766;BME280;65707;52.362;6.588;2023-09-12T12:22:46;101207.19;;;32.34;41.35
76766;BME280;65707;52.362;6.588;2023-09-12T12:25:15;101211.97;;;31.78;43.41
76766;BME280;65707;52.362;6.588;2023-09-12T12:27:42;101240.16;;;30.34;45.84
76766;BME280;65707;52.362;6.588;2023-09-12T12:30:10;101246.38;;;30.54;47.69
76766;BME280;65707;52.362;6.588;2023-09-12T12:32:39;101231.50;;;31.26;46.52
76766;BME280;65707;52.362;6.588;2023-09-12T12:35:06;101213.16;;;31.30;43.53
76766;BME280;65707;52.362;6.588;2023-09-12T12:37:33;101221.75;;;30.81;45.79
76766;BME280;65707;52.362;6.588;2023-09-12T12:40:02;101230.38;;;30.07;46.53
76766;BME280;65707;52.362;6.588;2023-09-12T12:42:35;101215.00;;;29.91;45.98
76766;BME280;65707;52.362;6.588;2023-09-12T12:45:05;101224.59;;;29.55;48.13
76766;BME280;65707;52.362;6.588;2023-09-12T12:47:36;101234.69;;;29.31;47.97
76766;BME280;65707;52.362;6.588;2023-09-12T12:50:07;101241.41;;;28.85;48.43
76766;BME280;65707;52.362;6.588;2023-09-12T12:52:34;101245.03;;;28.50;49.69